Time;durP1;ratioP1;P1;durP2;ratioP2;P2;SDS_P1;SDS_P2;PMS_P1;PMS_P2;Temp;Humidity;BMP_temperature;BMP_pressure;BME280_temperature;BME280_humidity;BME280_pressure;Samples;Min_cycle;Max_cycle;Signal;HPM_P1;HPM_P2
2024/01/16 00:01:32;;;;;;;;;;;-6.80;70.10;;;;;;5060179;28;19943;-85
2024/01/16 00:03:59;;;;;;;;;;;-6.80;69.20;;;;;;5063390;28;20004;-85
2024/01/16 00:06:30;;;;;;;;;;;-6.90;69.20;;;;;;5079252;28;19908;-85
2024/01/16 00:09:16;;;;;;;;;;;;;;;;;;;;;
2024/01/16 00:12:07;;;;;;;;;;;-6.90;69.40;;;;;;5039197;28;19928;-83
2024/01/16 00:14:43;;;;;;;;;;;-6.80;69.40;;;;;;5043477;28;20023;-85
2024/01/16 00:17:12;;;;;;;;;;;-6.80;69.50;;;;;;5038429;28;19964;-83
2024/01/16 00:19:44;;;;;;;;;;;-6.80;69.40;;;;;;5052445;28;19993;-84
2024/01/16 00:22:59;;;;;;;;;;;-6.80;69.40;;;;;;5049924;28;19932;-85
2024/01/16 00:26:13;;;;;;;;;;;;;;;;;;;;;
2024/01/16 00:29:01;;;;;;;;;;;;;;;;;;;;;
2024/01/16 00:32:21;;;;;;;;;;;;;;;;;;;;;
2024/01/16 00:35:49;;;;;;;;;;;-6.60;69.70;;;;;;4884044;29;20022;-84
2024/01/16 00:41:22;;;;;;;;;;;;;;;;;;;;;
2024/01/16 00:44:07;;;;;;;;;;;-6.50;69.20;;;;;;4835261;29;19932;-85
2024/01/16 00:46:54;;;;;;;;;;;-6.50;69.30;;;;;;4944521;28;19941;-84
2024/01/16 00:49:55;;;;;;;;;;;;;;;;;;;;;
2024/01/16 00:53:21;;;;;;;;;;;-6.00;69.60;;;;;;4963264;28;19997;-83
2024/01/16 00:55:57;;;;;;;;;;;-6.40;69.40;;;;;;5022790;28;19957;-84
2024/01/16 00:59:08;;;;;;;;;;;-6.40;69.70;;;;;;5048644;28;20523;-83
2024/01/16 01:02:16;;;;;;;;;;;;;;;;;;;;;
2024/01/16 01:05:25;;;;;;;;;;;;;;;;;;;;;
2024/01/16 01:09:00;;;;;;;;;;;;;;;;;;;;;
2024/01/16 01:12:09;;;;;;;;;;;-6.40;70.50;;;;;;4878186;29;20030;-86
2024/01/16 01:15:32;;;;;;;;;;;-6.40;70.60;;;;;;5019496;28;19936;-85
2024/01/16 01:52:14;;;;;;;;;;;-6.30;70.60;;;;;;5051188;28;19931;-85
2024/01/16 01:54:50;;;;;;;;;;;-6.30;70.90;;;;;;5043080;28;19968;-85
2024/01/16 01:57:22;;;;;;;;;;;-6.30;71.10;;;;;;5041596;28;19933;-82
2024/01/16 01:59:51;;;;;;;;;;;-6.20;71.00;;;;;;4983618;28;19929;-84
2024/01/16 02:02:37;;;;;;;;;;;-6.20;70.90;;;;;;4973180;28;19956;-86
2024/01/16 02:05:44;;;;;;;;;;;-6.40;71.00;;;;;;4965490;28;20021;-83
2024/01/16 02:08:13;;;;;;;;;;;-6.20;71.00;;;;;;4970806;28;19930;-83
2024/01/16 02:10:52;;;;;;;;;;;;;;;;;;;;;
2024/01/16 02:13:45;;;;;;;;;;;;;;;;;;;;;
2024/01/16 02:16:44;;;;;;;;;;;-6.20;71.00;;;;;;4948092;28;19937;-84
2024/01/16 02:19:32;;;;;;;;;;;;;;;;;;;;;
2024/01/16 02:23:23;;;;;;;;;;;;;;;;;;;;;
2024/01/16 02:41:44;;;;;;;;;;;-5.90;71.10;;;;;;4764183;29;19932;-84
2024/01/16 02:44:11;;;;;;;;;;;-5.90;71.10;;;;;;4882706;29;19931;-84
2024/01/16 02:46:40;;;;;;;;;;;-5.80;71.40;;;;;;4918898;28;19929;-84
2024/01/16 02:49:07;;;;;;;;;;;-5.90;71.00;;;;;;4960971;28;19930;-84
2024/01/16 02:51:46;;;;;;;;;;;-5.90;71.20;;;;;;4984505;28;19972;-84
2024/01/16 02:54:25;;;;;;;;;;;-5.80;72.30;;;;;;4984026;28;19930;-83
2024/01/16 03:01:41;;;;;;;;;;;;;;;;;;;;;
2024/01/16 03:15:30;;;;;;;;;;;-5.70;71.50;;;;;;5111125;27;20025;-86
2024/01/16 03:37:53;;;;;;;;;;;;;;;;;;;;;
2024/01/16 03:41:11;;;;;;;;;;;-5.40;71.60;;;;;;4941734;28;19955;-84
2024/01/16 03:44:29;;;;;;;;;;;-5.40;71.50;;;;;;4975687;28;19930;-85
2024/01/16 03:47:44;;;;;;;;;;;-5.20;71.60;;;;;;4992622;28;19934;-83
2024/01/16 03:50:59;;;;;;;;;;;;;;;;;;;;;
2024/01/16 03:54:33;;;;;;;;;;;;;;;;;;;;;
2024/01/16 03:57:53;;;;;;;;;;;;;;;;;;;;;
2024/01/16 04:23:47;;;;;;;;;;;-5.10;71.60;;;;;;5022543;28;19975;-83
2024/01/16 04:34:32;;;;;;;;;;;;;;;;;;;;;
2024/01/16 04:38:04;;;;;;;;;;;;;;;;;;;;;
2024/01/16 04:41:00;;;;;;;;;;;-5.40;71.10;;;;;;4916954;29;19941;-85
2024/01/16 04:44:02;;;;;;;;;;;-5.20;71.80;;;;;;5012886;28;20024;-85
2024/01/16 04:50:32;;;;;;;;;;;;;;;;;;;;;
2024/01/16 04:53:36;;;;;;;;;;;-5.10;71.30;;;;;;4973904;28;19929;-83
2024/01/16 04:56:36;;;;;;;;;;;-5.20;71.40;;;;;;5009766;28;19929;-85
2024/01/16 04:59:07;;;;;;;;;;;-5.30;71.30;;;;;;5060418;28;19975;-83
2024/01/16 05:02:35;;;;;;;;;;;;;;;;;;;;;
2024/01/16 05:06:05;;;;;;;;;;;;;;;;;;;;;
2024/01/16 05:09:12;;;;;;;;;;;;;;;;;;;;;
2024/01/16 05:12:26;;;;;;;;;;;;;;;;;;;;;
2024/01/16 05:15:28;;;;;;;;;;;-5.20;71.20;;;;;;5021210;28;19929;-83
2024/01/16 05:18:04;;;;;;;;;;;-5.20;71.20;;;;;;4970440;28;19932;-83
2024/01/16 05:20:42;;;;;;;;;;;-5.10;71.40;;;;;;5057697;28;19929;-86
2024/01/16 05:23:17;;;;;;;;;;;-5.20;71.50;;;;;;5065199;28;19929;-84
2024/01/16 05:26:50;;;;;;;;;;;;;;;;;;;;;
2024/01/16 05:29:42;;;;;;;;;;;-5.10;71.10;;;;;;4955537;28;19934;-84
2024/01/16 05:32:45;;;;;;;;;;;;;;;;;;;;;
2024/01/16 05:35:57;;;;;;;;;;;-5.10;71.20;;;;;;5014020;28;19960;-86
2024/01/16 05:38:57;;;;;;;;;;;;;;;;;;;;;
2024/01/16 05:42:28;;;;;;;;;;;;;;;;;;;;;
2024/01/16 05:45:58;;;;;;;;;;;;;;;;;;;;;
2024/01/16 05:48:36;;;;;;;;;;;-5.00;71.40;;;;;;4974715;28;19930;-87
2024/01/16 05:55:21;;;;;;;;;;;;;;;;;;;;;
2024/01/16 05:57:55;;;;;;;;;;;-5.10;71.40;;;;;;4976835;28;19936;-86
2024/01/16 06:00:34;;;;;;;;;;;-5.10;71.10;;;;;;5035764;28;19936;-88
2024/01/16 06:03:46;;;;;;;;;;;;;;;;;;;;;
2024/01/16 06:07:10;;;;;;;;;;;;;;;;;;;;;
2024/01/16 06:10:12;;;;;;;;;;;;;;;;;;;;;
2024/01/16 06:13:35;;;;;;;;;;;-5.10;71.50;;;;;;5006298;28;19933;-88
2024/01/16 06:16:50;;;;;;;;;;;;;;;;;;;;;
2024/01/16 06:20:35;;;;;;;;;;;;;;;;;;;;;
2024/01/16 06:23:13;;;;;;;;;;;-5.00;71.80;;;;;;4988887;28;19940;-84
2024/01/16 06:26:08;;;;;;;;;;;-5.00;71.50;;;;;;5005121;28;19969;-87
2024/01/16 06:29:29;;;;;;;;;;;;;;;;;;;;;
2024/01/16 06:32:02;;;;;;;;;;;-5.10;71.40;;;;;;4926645;29;20021;-89
2024/01/16 06:34:59;;;;;;;;;;;-5.40;72.20;;;;;;4937262;29;19986;-87
2024/01/16 06:37:32;;;;;;;;;;;-5.00;71.90;;;;;;4958895;28;20181;-88
2024/01/16 06:40:05;;;;;;;;;;;-4.90;71.80;;;;;;4958942;28;19930;-89
2024/01/16 06:42:49;;;;;;;;;;;;;;;;;;;;;
2024/01/16 06:45:54;;;;;;;;;;;-5.00;71.80;;;;;;4972518;28;19994;-87
2024/01/16 06:49:12;;;;;;;;;;;-5.00;72.20;;;;;;4985060;28;20005;-87
2024/01/16 06:52:12;;;;;;;;;;;-5.00;72.10;;;;;;4975411;28;20304;-81
2024/01/16 06:54:49;;;;;;;;;;;;;;;;;;;;;
2024/01/16 06:57:36;;;;;;;;;;;-4.90;72.20;;;;;;5056616;28;19933;-85
2024/01/16 07:00:34;;;;;;;;;;;-5.10;71.60;;;;;;5048848;28;19929;-79
2024/01/16 07:03:03;;;;;;;;;;;-5.00;72.00;;;;;;5051592;28;19955;-78
2024/01/16 07:05:43;;;;;;;;;;;-4.80;72.00;;;;;;5051871;28;19928;-80
2024/01/16 07:08:53;;;;;;;;;;;-5.00;71.70;;;;;;5051153;28;19935;-82
2024/01/16 07:11:21;;;;;;;;;;;-5.00;71.80;;;;;;5054342;28;19986;-82
2024/01/16 07:13:52;;;;;;;;;;;-5.10;71.30;;;;;;5051598;28;19940;-82
2024/01/16 07:16:22;;;;;;;;;;;-5.10;71.40;;;;;;5053847;28;20331;-80
2024/01/16 07:18:51;;;;;;;;;;;-5.10;71.30;;;;;;5052338;28;19929;-81
2024/01/16 07:21:46;;;;;;;;;;;;;;;;;;;;;
2024/01/16 07:25:10;;;;;;;;;;;;;;;;;;;;;
2024/01/16 07:28:22;;;;;;;;;;;;;;;;;;;;;
2024/01/16 07:32:02;;;;;;;;;;;;;;;;;;;;;
2024/01/16 07:35:07;;;;;;;;;;;-5.10;70.50;;;;;;4953126;28;19975;-87
2024/01/16 07:37:55;;;;;;;;;;;-5.10;70.00;;;;;;4942784;29;19968;-81
2024/01/16 07:43:21;;;;;;;;;;;-5.30;69.70;;;;;;4986640;28;19929;-89
2024/01/16 07:45:52;;;;;;;;;;;-5.50;69.70;;;;;;5014360;28;19960;-90
2024/01/16 07:48:20;;;;;;;;;;;-5.30;68.90;;;;;;5084092;28;19934;-89
2024/01/16 07:50:53;;;;;;;;;;;-5.30;68.70;;;;;;5070688;28;19928;-88
2024/01/16 07:53:27;;;;;;;;;;;-5.30;68.30;;;;;;5087412;28;19985;-87
2024/01/16 07:56:11;;;;;;;;;;;-5.50;67.80;;;;;;5054722;28;19933;-88
2024/01/16 07:58:39;;;;;;;;;;;-5.40;67.80;;;;;;5044190;28;19939;-90
2024/01/16 08:01:16;;;;;;;;;;;-5.40;67.30;;;;;;5077903;28;19928;-88
2024/01/16 08:03:46;;;;;;;;;;;-5.50;67.40;;;;;;5092757;28;19979;-89
2024/01/16 08:06:21;;;;;;;;;;;-5.50;67.30;;;;;;5074847;28;19928;-88
2024/01/16 08:08:55;;;;;;;;;;;-5.50;67.00;;;;;;5091272;28;19928;-89
2024/01/16 08:11:26;;;;;;;;;;;-5.60;66.80;;;;;;5070215;28;19928;-82
2024/01/16 08:13:54;;;;;;;;;;;-5.60;66.80;;;;;;5070302;28;20499;-82
2024/01/16 08:16:25;;;;;;;;;;;-5.60;66.80;;;;;;5058715;28;19999;-82
2024/01/16 08:19:04;;;;;;;;;;;-5.60;66.40;;;;;;5055020;28;19929;-82
2024/01/16 08:22:15;;;;;;;;;;;-5.60;66.40;;;;;;5074258;28;19928;-80
2024/01/16 08:24:44;;;;;;;;;;;-5.60;66.40;;;;;;5057701;28;19928;-79
2024/01/16 08:27:28;;;;;;;;;;;;;;;;;;;;;
2024/01/16 08:30:12;;;;;;;;;;;;;;;;;;;;;
2024/01/16 08:33:25;;;;;;;;;;;;;;;;;;;;;
2024/01/16 08:40:32;;;;;;;;;;;-5.80;65.10;;;;;;5001597;28;19937;-90
2024/01/16 08:43:12;;;;;;;;;;;-5.80;64.90;;;;;;5051669;22;20587;-80
2024/01/16 08:45:47;;;;;;;;;;;-5.80;65.40;;;;;;5070258;28;19929;-80
2024/01/16 08:48:16;;;;;;;;;;;-5.90;65.50;;;;;;5045522;28;20388;-80
2024/01/16 08:50:49;;;;;;;;;;;-6.20;65.20;;;;;;5069086;28;19974;-82
2024/01/16 08:53:17;;;;;;;;;;;-5.90;65.50;;;;;;5057578;28;20442;-81
2024/01/16 08:55:48;;;;;;;;;;;-5.90;65.30;;;;;;5072070;28;19928;-81
2024/01/16 08:58:30;;;;;;;;;;;-6.00;65.50;;;;;;5071767;28;19935;-82
2024/01/16 09:01:00;;;;;;;;;;;-6.00;65.60;;;;;;5055636;28;20446;-84
2024/01/16 09:03:28;;;;;;;;;;;-6.00;65.80;;;;;;5074602;28;19997;-88
2024/01/16 09:06:00;;;;;;;;;;;-6.10;65.80;;;;;;5074199;28;20027;-88
2024/01/16 09:08:31;;;;;;;;;;;-6.00;66.20;;;;;;5073485;28;19932;-88
2024/01/16 09:11:00;;;;;;;;;;;-5.80;65.80;;;;;;5071935;28;20350;-89
2024/01/16 09:13:36;;;;;;;;;;;-5.90;65.60;;;;;;5076405;28;19992;-88
2024/01/16 09:16:05;;;;;;;;;;;-6.00;66.00;;;;;;5077624;28;19968;-83
2024/01/16 09:18:33;;;;;;;;;;;-5.90;65.20;;;;;;5059824;28;19928;-81
2024/01/16 09:21:01;;;;;;;;;;;-5.90;64.80;;;;;;5055329;28;19975;-82
2024/01/16 09:23:29;;;;;;;;;;;-6.00;65.10;;;;;;5073418;28;20308;-79
2024/01/16 09:25:59;;;;;;;;;;;-6.00;65.00;;;;;;5054377;28;19959;-80
2024/01/16 09:28:28;;;;;;;;;;;-6.10;65.30;;;;;;5037752;28;19929;-79
2024/01/16 09:30:58;;;;;;;;;;;-6.00;65.20;;;;;;5070111;28;19994;-78
2024/01/16 09:33:28;;;;;;;;;;;-6.00;64.90;;;;;;5075606;28;20396;-80
2024/01/16 09:35:56;;;;;;;;;;;-6.10;64.10;;;;;;5074785;28;19939;-80
2024/01/16 09:38:23;;;;;;;;;;;-6.10;64.40;;;;;;5072856;28;19929;-78
2024/01/16 09:40:58;;;;;;;;;;;-6.10;65.00;;;;;;5074337;28;19935;-81
2024/01/16 09:43:29;;;;;;;;;;;-5.80;65.60;;;;;;5075439;28;19928;-80
2024/01/16 09:46:02;;;;;;;;;;;-6.00;64.40;;;;;;5056561;28;19982;-78
2024/01/16 09:48:32;;;;;;;;;;;-6.00;64.20;;;;;;5086961;28;19993;-79
2024/01/16 09:51:00;;;;;;;;;;;-6.10;64.10;;;;;;5041433;28;20027;-79
2024/01/16 09:53:27;;;;;;;;;;;-6.00;64.30;;;;;;5032459;28;19991;-79
2024/01/16 09:55:56;;;;;;;;;;;-6.10;63.70;;;;;;4982945;28;20355;-78
2024/01/16 09:58:26;;;;;;;;;;;-6.10;64.40;;;;;;4892004;29;20303;-80
2024/01/16 10:00:58;;;;;;;;;;;-6.10;64.00;;;;;;4937215;28;19938;-80
2024/01/16 10:03:26;;;;;;;;;;;-6.10;64.10;;;;;;4895760;29;19938;-79
2024/01/16 10:05:55;;;;;;;;;;;-5.70;63.70;;;;;;4836472;29;20325;-88
2024/01/16 10:08:23;;;;;;;;;;;-6.10;63.80;;;;;;4791066;29;20029;-87
2024/01/16 10:10:54;;;;;;;;;;;-6.20;64.20;;;;;;4777204;29;19971;-85
2024/01/16 10:13:22;;;;;;;;;;;-6.10;64.20;;;;;;4856193;29;19931;-85
2024/01/16 10:15:52;;;;;;;;;;;-6.00;63.90;;;;;;4817863;29;19944;-86
2024/01/16 10:18:31;;;;;;;;;;;-5.90;63.70;;;;;;4808990;29;19937;-87
2024/01/16 10:21:01;;;;;;;;;;;-6.00;63.70;;;;;;4767794;29;19934;-86
2024/01/16 10:23:41;;;;;;;;;;;-5.80;62.90;;;;;;4768288;29;19984;-87
2024/01/16 10:26:18;;;;;;;;;;;-6.20;62.30;;;;;;4730948;29;19934;-79
2024/01/16 10:29:16;;;;;;;;;;;;;;;;;;;;;
2024/01/16 10:32:12;;;;;;;;;;;-6.10;62.90;;;;;;4708071;30;20423;-79
2024/01/16 10:34:42;;;;;;;;;;;-6.10;63.10;;;;;;4722371;29;19946;-77
2024/01/16 10:37:09;;;;;;;;;;;-6.10;63.50;;;;;;4820361;29;19933;-79
2024/01/16 10:39:39;;;;;;;;;;;-5.90;63.40;;;;;;4816242;29;19975;-81
2024/01/16 10:42:08;;;;;;;;;;;-5.90;63.50;;;;;;4858373;29;21601;-80
2024/01/16 10:44:38;;;;;;;;;;;-5.90;63.50;;;;;;4930293;29;19949;-81
2024/01/16 10:47:12;;;;;;;;;;;-5.80;64.10;;;;;;4922256;29;19930;-80
2024/01/16 10:49:43;;;;;;;;;;;-5.80;63.80;;;;;;4953148;28;19930;-87
2024/01/16 10:52:12;;;;;;;;;;;-5.80;63.60;;;;;;4961787;28;20354;-87
2024/01/16 10:54:42;;;;;;;;;;;-5.80;63.50;;;;;;4973590;28;19930;-87
2024/01/16 10:57:09;;;;;;;;;;;-5.80;63.80;;;;;;4994768;28;19981;-87
2024/01/16 10:59:43;;;;;;;;;;;-5.80;64.00;;;;;;4990358;28;20860;-86
2024/01/16 11:02:14;;;;;;;;;;;-5.80;63.80;;;;;;4934044;29;19938;-87
2024/01/16 11:05:07;;;;;;;;;;;-5.60;64.10;;;;;;4887484;29;19931;-86
2024/01/16 11:07:43;;;;;;;;;;;-5.40;64.00;;;;;;4795923;29;19964;-86
2024/01/16 11:13:38;;;;;;;;;;;-5.60;64.60;;;;;;4952579;27;4711803;-79
2024/01/16 11:16:27;;;;;;;;;;;-6.00;63.30;;;;;;5112691;28;20016;-79
2024/01/16 11:19:02;;;;;;;;;;;-5.60;64.40;;;;;;5106446;28;19949;-81
2024/01/16 11:21:30;;;;;;;;;;;-6.00;63.70;;;;;;5096894;28;19951;-79
2024/01/16 11:24:12;;;;;;;;;;;;;;;;;;;;;
2024/01/16 11:28:04;;;;;;;;;;;;;;;;;;;;;
2024/01/16 11:31:24;;;;;;;;;;;;;;;;;;;;;
2024/01/16 11:34:36;;;;;;;;;;;-6.40;63.00;;;;;;4971108;28;20037;-81
2024/01/16 12:07:06;;;;;;;;;;;-6.80;62.80;;;;;;4898354;28;20045;-81
2024/01/16 12:13:23;;;;;;;;;;;-7.00;62.50;;;;;;5010054;28;19968;-84
2024/01/16 12:16:00;;;;;;;;;;;-7.00;62.60;;;;;;5109760;28;19928;-83
2024/01/16 12:18:28;;;;;;;;;;;-7.20;63.00;;;;;;5100364;28;20021;-84
2024/01/16 12:20:58;;;;;;;;;;;-7.10;63.20;;;;;;5079335;28;19937;-85
2024/01/16 12:23:25;;;;;;;;;;;-7.10;63.00;;;;;;5004932;28;20329;-84
2024/01/16 12:25:54;;;;;;;;;;;-7.10;62.00;;;;;;4964185;28;19931;-84
2024/01/16 12:28:22;;;;;;;;;;;-7.20;61.50;;;;;;4879024;29;19932;-86
2024/01/16 12:30:51;;;;;;;;;;;-7.30;61.80;;;;;;4840982;29;19938;-86
2024/01/16 12:33:23;;;;;;;;;;;-7.30;62.10;;;;;;4810121;29;19936;-85
2024/01/16 12:35:50;;;;;;;;;;;-7.40;61.90;;;;;;4811143;29;19932;-86
2024/01/16 12:38:54;;;;;;;;;;;-7.40;61.90;;;;;;4824513;29;19980;-87
2024/01/16 12:41:25;;;;;;;;;;;-7.50;61.60;;;;;;4835929;29;19968;-87
2024/01/16 12:43:57;;;;;;;;;;;-7.60;61.50;;;;;;4827463;29;20377;-87
2024/01/16 12:46:28;;;;;;;;;;;-7.60;61.90;;;;;;4827609;29;19944;-85
2024/01/16 12:49:03;;;;;;;;;;;-7.70;62.00;;;;;;4827873;29;19983;-86
2024/01/16 12:51:35;;;;;;;;;;;-7.70;62.70;;;;;;4848861;29;19933;-83
2024/01/16 12:54:33;;;;;;;;;;;-7.80;63.00;;;;;;4844181;29;19968;-87
2024/01/16 12:57:01;;;;;;;;;;;-7.80;63.10;;;;;;4818768;29;20304;-85
2024/01/16 12:59:30;;;;;;;;;;;-8.00;63.50;;;;;;4827021;29;20059;-85
2024/01/16 13:01:57;;;;;;;;;;;-8.10;63.70;;;;;;4824597;29;19932;-85
2024/01/16 13:04:24;;;;;;;;;;;-8.10;64.00;;;;;;4829020;29;19940;-88
2024/01/16 13:06:52;;;;;;;;;;;-8.20;64.10;;;;;;4832937;29;20398;-85
2024/01/16 13:09:26;;;;;;;;;;;-8.20;64.30;;;;;;4835665;29;19936;-85
2024/01/16 13:11:58;;;;;;;;;;;-8.20;64.50;;;;;;4832937;29;19933;-85
2024/01/16 13:14:26;;;;;;;;;;;-8.20;63.60;;;;;;4817754;29;20028;-84
2024/01/16 13:16:55;;;;;;;;;;;-8.30;63.60;;;;;;4841409;29;20352;-85
2024/01/16 13:19:23;;;;;;;;;;;-8.40;63.80;;;;;;4851861;29;19933;-87
2024/01/16 13:21:51;;;;;;;;;;;-8.30;63.80;;;;;;4842611;29;19932;-86
2024/01/16 13:24:21;;;;;;;;;;;-8.60;63.30;;;;;;4807352;29;19949;-84
2024/01/16 13:26:48;;;;;;;;;;;-8.70;63.80;;;;;;4815145;29;19940;-84
2024/01/16 13:29:17;;;;;;;;;;;-8.70;64.10;;;;;;4852122;29;19978;-81
2024/01/16 13:31:48;;;;;;;;;;;-8.70;64.00;;;;;;4876609;29;19987;-81
2024/01/16 13:34:17;;;;;;;;;;;-8.70;63.60;;;;;;4894098;29;19942;-80
2024/01/16 13:36:50;;;;;;;;;;;-8.80;63.50;;;;;;4903412;29;19954;-82
2024/01/16 13:40:43;;;;;;;;;;;-8.90;63.70;;;;;;4897913;29;19939;-83
2024/01/16 13:43:40;;;;;;;;;;;;;;;;;;;;;
2024/01/16 13:47:21;;;;;;;;;;;;;;;;;;;;;
2024/01/16 13:50:32;;;;;;;;;;;;;;;;;;;;;
2024/01/16 13:54:46;;;;;;;;;;;;;;;;;;;;;
2024/01/16 13:58:35;;;;;;;;;;;;;;;;;;;;;
2024/01/16 14:06:44;;;;;;;;;;;;;;;;;;;;;
2024/01/16 14:10:26;;;;;;;;;;;;;;;;;;;;;
2024/01/16 14:17:19;;;;;;;;;;;-9.10;64.10;;;;;;4765887;30;20450;-82
2024/01/16 14:20:26;;;;;;;;;;;;;;;;;;;;;
2024/01/16 14:23:23;;;;;;;;;;;-9.30;63.30;;;;;;4765717;30;19942;-84
2024/01/16 14:26:10;;;;;;;;;;;-9.20;64.00;;;;;;4757926;30;19938;-84
2024/01/16 14:28:48;;;;;;;;;;;-9.20;63.40;;;;;;4822595;29;19933;-86
2024/01/16 14:31:19;;;;;;;;;;;-9.20;63.20;;;;;;4902811;29;20255;-85
2024/01/16 14:37:09;;;;;;;;;;;-9.20;63.10;;;;;;5094517;27;20411;-83
2024/01/16 14:39:42;;;;;;;;;;;-9.40;62.90;;;;;;5073946;28;19939;-81
2024/01/16 14:42:13;;;;;;;;;;;-9.20;63.30;;;;;;5057893;28;20008;-80
2024/01/16 14:44:45;;;;;;;;;;;-9.20;62.80;;;;;;5075294;28;20316;-87
2024/01/16 14:47:38;;;;;;;;;;;;;;;;;;;;;
2024/01/16 14:51:06;;;;;;;;;;;;;;;;;;;;;
2024/01/16 14:53:56;;;;;;;;;;;-9.40;63.30;;;;;;5026703;28;19983;-81
2024/01/16 14:56:34;;;;;;;;;;;-9.50;62.10;;;;;;5063085;28;19929;-80
2024/01/16 14:59:09;;;;;;;;;;;-9.50;62.00;;;;;;5079943;28;20606;-81
2024/01/16 15:01:53;;;;;;;;;;;;;;;;;;;;;
2024/01/16 15:04:22;;;;;;;;;;;-9.60;62.30;;;;;;5055894;28;19954;-79
2024/01/16 15:06:52;;;;;;;;;;;-9.70;62.10;;;;;;5067497;28;19981;-80
2024/01/16 15:09:21;;;;;;;;;;;-9.80;62.30;;;;;;5087620;28;19932;-83
2024/01/16 15:11:49;;;;;;;;;;;-9.70;62.50;;;;;;5071566;28;19928;-85
2024/01/16 15:14:21;;;;;;;;;;;-9.90;62.30;;;;;;5050000;28;19939;-84
2024/01/16 15:17:01;;;;;;;;;;;-9.80;63.00;;;;;;5057937;28;20042;-82
2024/01/16 15:19:44;;;;;;;;;;;-9.90;63.00;;;;;;5070787;28;19971;-84
2024/01/16 15:22:12;;;;;;;;;;;-9.80;63.30;;;;;;5100005;28;19934;-85
2024/01/16 15:24:47;;;;;;;;;;;-9.90;62.90;;;;;;5092102;28;19929;-83
2024/01/16 15:27:22;;;;;;;;;;;-9.90;62.60;;;;;;5087198;28;20054;-83
2024/01/16 15:29:54;;;;;;;;;;;-9.90;62.30;;;;;;5086737;28;19935;-83
2024/01/16 15:32:37;;;;;;;;;;;-10.00;62.20;;;;;;5063990;28;20065;-83
2024/01/16 15:35:22;;;;;;;;;;;;;;;;;;;;;
2024/01/16 15:41:34;;;;;;;;;;;-10.10;62.00;;;;;;5081734;28;19927;-84
2024/01/16 15:44:05;;;;;;;;;;;-10.30;61.90;;;;;;5082007;28;20402;-83
2024/01/16 15:46:38;;;;;;;;;;;-10.30;62.10;;;;;;5080219;28;19977;-82
2024/01/16 15:49:19;;;;;;;;;;;-10.40;62.10;;;;;;5083533;28;19967;-82
2024/01/16 15:52:34;;;;;;;;;;;;;;;;;;;;;
2024/01/16 16:02:50;;;;;;;;;;;;;;;;;;;;;
2024/01/16 16:34:40;;;;;;;;;;;;;;;;;;;;;
2024/01/16 16:37:55;;;;;;;;;;;-11.20;61.30;;;;;;4871507;29;19937;-85
2024/01/16 16:41:08;;;;;;;;;;;-11.20;61.70;;;;;;4882124;29;20022;-83
2024/01/16 16:43:48;;;;;;;;;;;-11.20;62.10;;;;;;4952591;28;20490;-84
2024/01/16 16:47:02;;;;;;;;;;;-11.20;61.60;;;;;;5039546;28;20863;-85
2024/01/16 16:49:56;;;;;;;;;;;-11.30;61.40;;;;;;5048435;28;19936;-84
2024/01/16 16:52:34;;;;;;;;;;;-11.20;61.60;;;;;;5054018;28;19928;-83
2024/01/16 16:55:16;;;;;;;;;;;;;;;;;;;;;
2024/01/16 16:58:04;;;;;;;;;;;;;;;;;;;;;
2024/01/16 17:01:16;;;;;;;;;;;-11.20;61.30;;;;;;5039580;28;20014;-88
2024/01/16 17:04:22;;;;;;;;;;;-11.30;61.00;;;;;;4966785;28;20406;-80
2024/01/16 17:06:50;;;;;;;;;;;-11.30;60.80;;;;;;5059157;28;20042;-81
2024/01/16 17:09:19;;;;;;;;;;;-11.40;60.80;;;;;;5050021;28;19932;-80
2024/01/16 17:11:53;;;;;;;;;;;-11.60;61.00;;;;;;5058427;28;20022;-82
2024/01/16 17:14:34;;;;;;;;;;;;;;;;;;;;;
2024/01/16 17:17:17;;;;;;;;;;;-11.60;61.60;;;;;;5062887;28;20568;-87
2024/01/16 17:20:28;;;;;;;;;;;-11.70;61.40;;;;;;5034012;28;20027;-83
2024/01/16 17:23:35;;;;;;;;;;;;;;;;;;;;;
2024/01/16 17:30:44;;;;;;;;;;;;;;;;;;;;;
2024/01/16 17:33:33;;;;;;;;;;;-11.80;62.00;;;;;;4926848;29;19954;-88
2024/01/16 17:36:31;;;;;;;;;;;;;;;;;;4922289;29;19938;-82
2024/01/16 17:42:30;;;;;;;;;;;-11.50;78.00;;;;;;4919389;29;20022;-80
2024/01/16 17:45:39;;;;;;;;;;;;;;;;;;;;;
2024/01/16 17:48:33;;;;;;;;;;;-11.00;80.50;;;;;;4965480;28;19934;-81
2024/01/16 17:52:00;;;;;;;;;;;;;;;;;;;;;
2024/01/16 17:55:29;;;;;;;;;;;;;;;;;;;;;
2024/01/16 17:58:33;;;;;;;;;;;-11.90;78.70;;;;;;4939008;29;20009;-81
2024/01/16 18:01:05;;;;;;;;;;;-11.40;81.60;;;;;;4941176;28;19935;-82
2024/01/16 18:04:08;;;;;;;;;;;;;;;;;;;;;
2024/01/16 18:07:32;;;;;;;;;;;;;;;;;;;;;
2024/01/16 18:10:34;;;;;;;;;;;-11.70;78.70;;;;;;4985138;28;20402;-83
2024/01/16 18:13:41;;;;;;;;;;;-12.50;78.30;;;;;;4984563;28;19965;-80
2024/01/16 18:17:01;;;;;;;;;;;-11.90;80.00;;;;;;4996412;28;19929;-86
2024/01/16 18:20:34;;;;;;;;;;;-11.90;80.80;;;;;;5012067;28;19929;-88
2024/01/16 18:23:25;;;;;;;;;;;;;;;;;;;;;
2024/01/16 18:26:04;;;;;;;;;;;-11.50;82.60;;;;;;4974740;28;19930;-80
2024/01/16 18:28:58;;;;;;;;;;;-11.80;78.50;;;;;;4937003;29;20478;-82
2024/01/16 18:38:21;;;;;;;;;;;-12.00;79.60;;;;;;4977415;28;20353;-80
2024/01/16 18:41:24;;;;;;;;;;;;;;;;;;;;;
2024/01/16 18:44:26;;;;;;;;;;;;;;;;;;;;;
2024/01/16 18:47:26;;;;;;;;;;;-11.90;81.40;;;;;;5054091;28;19928;-80
2024/01/16 18:50:11;;;;;;;;;;;-11.00;82.00;;;;;;5055969;28;20272;-80
2024/01/16 18:53:15;;;;;;;;;;;-11.50;81.50;;;;;;5040912;28;19928;-82
2024/01/16 18:56:26;;;;;;;;;;;-10.80;82.70;;;;;;4981932;28;20358;-86
2024/01/16 18:59:11;;;;;;;;;;;-11.30;81.00;;;;;;4989475;28;19930;-79
2024/01/16 19:01:59;;;;;;;;;;;-11.90;82.80;;;;;;4980284;28;20662;-87
2024/01/16 19:04:59;;;;;;;;;;;;;;;;;;;;;
2024/01/16 19:07:51;;;;;;;;;;;-12.80;84.00;;;;;;4956585;28;19934;-89
2024/01/16 19:10:27;;;;;;;;;;;-12.60;83.30;;;;;;4867027;29;20329;-83
2024/01/16 19:13:44;;;;;;;;;;;;;;;;;;;;;
2024/01/16 19:17:03;;;;;;;;;;;;;;;;;;;;;
2024/01/16 19:20:09;;;;;;;;;;;-12.20;81.90;;;;;;4945233;28;19951;-81
2024/01/16 19:23:30;;;;;;;;;;;;;;;;;;;;;
2024/01/16 19:26:47;;;;;;;;;;;;;;;;;;;;;
2024/01/16 19:29:35;;;;;;;;;;;;;;;;;;;;;
2024/01/16 19:32:34;;;;;;;;;;;;;;;;;;;;;
2024/01/16 19:35:40;;;;;;;;;;;-12.20;87.30;;;;;;4971816;28;20032;-84
2024/01/16 19:38:51;;;;;;;;;;;-11.30;87.80;;;;;;4937295;28;19936;-81
2024/01/16 19:41:19;;;;;;;;;;;-12.40;88.10;;;;;;4969575;28;20430;-85
2024/01/16 19:44:11;;;;;;;;;;;-12.50;89.40;;;;;;4955105;28;19937;-83
2024/01/16 19:51:37;;;;;;;;;;;-12.20;90.10;;;;;;4906385;29;20236;-86
2024/01/16 19:55:07;;;;;;;;;;;;;;;;;;;;;
2024/01/16 19:58:46;;;;;;;;;;;-12.60;87.00;;;;;;4972472;28;20423;-83
2024/01/16 20:02:13;;;;;;;;;;;;;;;;;;;;;
2024/01/16 20:05:58;;;;;;;;;;;-12.20;87.80;;;;;;5053010;28;19928;-85
2024/01/16 20:09:38;;;;;;;;;;;;;;;;;;;;;
2024/01/16 20:12:17;;;;;;;;;;;;;;;;;;5011245;28;19930;-81
2024/01/16 20:15:19;;;;;;;;;;;-12.70;90.80;;;;;;5006920;28;19961;-86
2024/01/16 20:18:59;;;;;;;;;;;;;;;;;;;;;
2024/01/16 20:22:19;;;;;;;;;;;-12.20;90.30;;;;;;4977066;28;19929;-81
2024/01/16 20:24:55;;;;;;;;;;;-13.00;89.00;;;;;;5058846;28;19929;-81
2024/01/16 20:27:29;;;;;;;;;;;;;;;;;;5032873;28;19975;-83
2024/01/16 20:30:01;;;;;;;;;;;-12.80;88.40;;;;;;5072596;28;20316;-80
2024/01/16 20:32:32;;;;;;;;;;;-13.20;90.10;;;;;;5060553;28;19933;-84
2024/01/16 20:35:02;;;;;;;;;;;-12.60;90.80;;;;;;5039365;28;20309;-87
2024/01/16 20:37:35;;;;;;;;;;;-12.00;91.60;;;;;;5077487;28;19929;-82
2024/01/16 20:40:09;;;;;;;;;;;-11.30;90.60;;;;;;5039378;28;19928;-80
2024/01/16 20:42:40;;;;;;;;;;;-12.50;88.90;;;;;;5054795;28;20650;-82
2024/01/16 20:45:13;;;;;;;;;;;-12.70;88.40;;;;;;5069460;28;19968;-80
2024/01/16 20:47:45;;;;;;;;;;;-13.50;86.80;;;;;;5055089;28;19928;-85
2024/01/16 20:50:18;;;;;;;;;;;-13.50;91.80;;;;;;5074631;28;19932;-85
2024/01/16 20:52:47;;;;;;;;;;;-12.40;88.00;;;;;;5037110;28;20030;-86
2024/01/16 20:55:15;;;;;;;;;;;-13.80;89.90;;;;;;5062112;28;19982;-82
2024/01/16 20:57:43;;;;;;;;;;;-13.30;88.60;;;;;;5043435;28;19932;-82
2024/01/16 21:00:18;;;;;;;;;;;-13.70;90.40;;;;;;5074971;28;19928;-81
2024/01/16 21:02:45;;;;;;;;;;;-12.80;90.00;;;;;;5060354;28;19928;-81
2024/01/16 21:05:19;;;;;;;;;;;;;;;;;;5055001;28;19928;-82
2024/01/16 21:07:59;;;;;;;;;;;-13.10;93.10;;;;;;5074293;28;19928;-83
2024/01/16 21:10:41;;;;;;;;;;;-13.00;88.50;;;;;;5042059;28;19928;-85
2024/01/16 21:13:11;;;;;;;;;;;-13.30;89.20;;;;;;5056442;28;20379;-83
2024/01/16 21:15:43;;;;;;;;;;;-12.80;90.30;;;;;;5095443;28;19931;-79
2024/01/16 21:18:13;;;;;;;;;;;-11.60;88.70;;;;;;5073368;28;20435;-79
2024/01/16 21:20:43;;;;;;;;;;;-13.20;88.00;;;;;;5082176;28;19937;-80
2024/01/16 21:23:13;;;;;;;;;;;-13.20;88.80;;;;;;5071870;28;19952;-79
2024/01/16 21:25:40;;;;;;;;;;;-13.40;90.30;;;;;;5054853;28;20004;-80
2024/01/16 21:28:13;;;;;;;;;;;;;;;;;;5058411;28;19939;-78
2024/01/16 21:30:43;;;;;;;;;;;;;;;;;;5062453;28;19932;-81
2024/01/16 21:33:12;;;;;;;;;;;;;;;;;;5056794;28;20308;-79
2024/01/16 21:35:41;;;;;;;;;;;;;;;;;;5071181;28;20031;-80
2024/01/16 21:38:09;;;;;;;;;;;;;;;;;;5069186;28;19935;-80
2024/01/16 21:40:45;;;;;;;;;;;;;;;;;;5066056;28;20389;-79
2024/01/16 21:43:16;;;;;;;;;;;;;;;;;;5056833;28;19933;-79
2024/01/16 21:45:44;;;;;;;;;;;;;;;;;;5035495;28;20501;-81
2024/01/16 21:48:22;;;;;;;;;;;-13.10;90.10;;;;;;5047076;28;19928;-80
2024/01/16 21:50:57;;;;;;;;;;;-13.20;86.00;;;;;;5057187;28;19935;-80
2024/01/16 21:53:30;;;;;;;;;;;-11.20;90.10;;;;;;5066716;28;19928;-80
2024/01/16 21:56:24;;;;;;;;;;;-12.90;88.70;;;;;;5053998;28;19939;-82